createdAt,value
2022-10-25T00:04:50.894Z,2.93
2022-10-25T00:10:01.233Z,2.40
2022-10-25T00:15:35.619Z,2.40
2022-10-25T00:27:01.953Z,2.10
2022-10-25T00:31:52.283Z,2.70
2022-10-25T00:37:13.551Z,2.17
2022-10-25T00:42:30.489Z,2.50
2022-10-25T00:47:58.687Z,2.67
2022-10-25T00:53:24.118Z,2.30
2022-10-25T00:58:31.862Z,1.87
2022-10-25T01:03:45.890Z,2.70
2022-10-25T01:08:50.091Z,2.93
2022-10-25T01:13:52.290Z,2.10
2022-10-25T01:19:45.701Z,2.30
2022-10-25T01:24:56.987Z,2.30
2022-10-25T01:30:21.645Z,2.23
2022-10-25T01:35:46.387Z,2.87
2022-10-25T01:41:19.214Z,2.87
2022-10-25T01:46:41.899Z,2.40
2022-10-25T01:51:43.776Z,2.80
2022-10-25T01:57:27.492Z,2.33
2022-10-25T02:02:41.872Z,2.20
2022-10-25T02:08:32.809Z,2.97
2022-10-25T02:13:49.488Z,2.50
2022-10-25T02:19:08.002Z,2.70
2022-10-25T02:24:32.914Z,2.63
2022-10-25T02:29:52.687Z,2.87
2022-10-25T02:35:26.042Z,2.93
2022-10-25T02:40:43.326Z,2.80
2022-10-25T02:45:45.074Z,2.97
2022-10-25T02:51:06.066Z,3.20
2022-10-25T02:56:31.640Z,3.30
2022-10-25T03:01:47.753Z,2.60
2022-10-25T03:06:57.499Z,3.60
2022-10-25T03:11:59.302Z,3.87
2022-10-25T03:17:01.018Z,3.00
2022-10-25T03:22:08.020Z,2.87
2022-10-25T03:27:46.079Z,2.90
2022-10-25T03:32:45.497Z,2.70
2022-10-25T03:37:55.587Z,2.57
2022-10-25T03:42:57.291Z,2.80
2022-10-25T03:47:59.369Z,3.33
2022-10-25T03:53:01.256Z,3.00
2022-10-25T03:58:11.126Z,3.43
2022-10-25T04:03:15.473Z,3.00
2022-10-25T04:08:34.571Z,3.63
2022-10-25T04:13:49.555Z,3.23
2022-10-25T04:18:53.457Z,4.17
2022-10-25T04:24:00.624Z,3.00
2022-10-25T04:29:17.049Z,3.27
2022-10-25T04:34:27.763Z,3.30
2022-10-25T04:39:43.712Z,3.10
2022-10-25T04:44:53.119Z,4.20
2022-10-25T04:49:56.608Z,5.07
2022-10-25T04:55:01.695Z,4.03
2022-10-25T05:00:04.554Z,4.23
2022-10-25T05:05:06.825Z,4.33
2022-10-25T05:15:53.609Z,9.17
2022-10-25T05:20:56.556Z,5.33
2022-10-25T05:26:25.487Z,3.90
2022-10-25T05:37:32.414Z,13.70
2022-10-25T05:42:34.318Z,6.47
2022-10-25T05:47:38.799Z,5.23
2022-10-25T05:52:44.261Z,5.10
2022-10-25T05:57:51.690Z,5.03
2022-10-25T06:02:53.474Z,5.70
2022-10-25T06:07:55.224Z,5.50
2022-10-25T06:12:56.978Z,5.23
2022-10-25T06:17:58.825Z,6.13
2022-10-25T06:23:11.234Z,5.77
2022-10-25T06:28:13.104Z,6.77
2022-10-25T06:33:15.018Z,6.40
2022-10-25T06:38:16.810Z,7.47
2022-10-25T06:43:18.729Z,6.63
2022-10-25T06:48:20.882Z,6.70
2022-10-25T06:53:22.638Z,6.63
2022-10-25T06:58:24.612Z,6.13
2022-10-25T07:03:35.114Z,7.07
2022-10-25T07:08:45.584Z,7.03
2022-10-25T07:13:54.836Z,7.40
2022-10-25T07:19:00.828Z,6.93
2022-10-25T07:24:03.165Z,6.73
2022-10-25T07:29:05.189Z,7.57
2022-10-25T07:34:07.676Z,6.57
2022-10-25T07:39:09.443Z,7.07
2022-10-25T07:44:15.909Z,6.17
2022-10-25T07:49:18.712Z,6.63
2022-10-25T07:54:20.498Z,7.07
2022-10-25T07:59:22.487Z,6.77
2022-10-25T08:04:24.241Z,8.47
2022-10-25T08:09:37.765Z,8.17
2022-10-25T08:14:41.681Z,7.43
2022-10-25T08:19:50.173Z,7.50
2022-10-25T08:24:52.976Z,6.67
2022-10-25T08:29:54.660Z,7.00
2022-10-25T08:34:56.636Z,7.77
2022-10-25T08:39:58.387Z,5.90
2022-10-25T08:45:28.767Z,7.27
2022-10-25T08:50:45.831Z,7.97
2022-10-25T08:56:04.977Z,7.67
2022-10-25T09:01:28.987Z,6.87
2022-10-25T09:06:41.638Z,7.53
2022-10-25T09:12:15.711Z,6.10
2022-10-25T09:17:25.327Z,5.97
2022-10-25T09:22:29.485Z,5.77
2022-10-25T09:27:42.895Z,6.10
2022-10-25T09:32:48.839Z,6.33
2022-10-25T09:38:17.068Z,5.97
2022-10-25T09:43:25.461Z,6.60
2022-10-25T09:48:46.718Z,6.33
2022-10-25T09:53:49.111Z,7.13
2022-10-25T09:58:50.991Z,5.50
2022-10-25T10:03:55.792Z,7.10
2022-10-25T10:09:05.371Z,7.20
2022-10-25T10:14:12.299Z,6.40
2022-10-25T10:19:22.821Z,6.93
2022-10-25T10:24:33.671Z,7.03
2022-10-25T10:29:51.956Z,6.57
2022-10-25T10:34:55.471Z,7.33
2022-10-25T10:40:08.913Z,7.57
2022-10-25T10:45:43.545Z,9.20
2022-10-25T10:50:49.547Z,10.40
2022-10-25T10:55:59.315Z,9.63
2022-10-25T11:01:07.146Z,10.27
2022-10-25T11:06:18.807Z,10.50
2022-10-25T11:11:24.772Z,12.37
2022-10-25T11:16:50.499Z,10.23
2022-10-25T11:22:23.423Z,9.83
2022-10-25T11:27:35.158Z,8.50
2022-10-25T11:33:02.525Z,9.10
2022-10-25T11:38:26.456Z,8.97
2022-10-25T11:43:41.125Z,9.53
2022-10-25T11:48:48.557Z,9.83
2022-10-25T11:54:21.829Z,9.23
2022-10-25T11:59:49.757Z,9.77
2022-10-25T12:05:12.954Z,10.90
2022-10-25T12:10:28.259Z,9.63
2022-10-25T12:15:36.670Z,9.53
2022-10-25T12:20:38.810Z,9.70
2022-10-25T12:26:02.267Z,9.43
2022-10-25T12:31:15.284Z,8.77
2022-10-25T12:36:40.960Z,9.70
2022-10-25T12:41:44.822Z,8.57
2022-10-25T12:47:04.539Z,9.37
2022-10-25T12:52:21.135Z,8.20
2022-10-25T12:57:23.008Z,8.70
2022-10-25T13:02:49.629Z,7.43
2022-10-25T13:07:51.808Z,9.23
2022-10-25T13:13:17.143Z,9.13
2022-10-25T13:18:57.166Z,10.17
2022-10-25T13:24:00.048Z,11.60
2022-10-25T13:29:16.181Z,11.83
2022-10-25T13:34:17.969Z,13.63
2022-10-25T13:39:31.142Z,14.30
2022-10-25T13:44:32.935Z,9.23
2022-10-25T13:49:42.234Z,9.50
2022-10-25T13:54:49.918Z,9.20
2022-10-25T13:59:55.878Z,8.90
2022-10-25T14:05:00.505Z,7.40
2022-10-25T14:10:03.562Z,8.30
2022-10-25T14:15:10.419Z,8.60
2022-10-25T14:20:29.939Z,7.03
2022-10-25T14:25:34.669Z,5.53
2022-10-25T14:30:44.870Z,5.97
2022-10-25T14:35:51.924Z,4.00
2022-10-25T14:41:00.322Z,2.50
2022-10-25T14:46:14.316Z,2.70
2022-10-25T14:51:24.388Z,2.57
2022-10-25T14:56:38.541Z,3.13
2022-10-25T15:01:40.576Z,2.33
2022-10-25T15:06:43.154Z,2.77
2022-10-25T15:12:06.310Z,2.57
2022-10-25T15:17:34.240Z,2.57
2022-10-25T15:22:38.750Z,2.63
2022-10-25T15:27:43.359Z,2.57
2022-10-25T15:32:50.391Z,3.17
2022-10-25T15:37:52.268Z,3.07
2022-10-25T15:43:00.188Z,2.93
2022-10-25T15:48:04.893Z,2.80
2022-10-25T15:53:40.765Z,3.73
2022-10-25T15:59:28.955Z,3.73
2022-10-25T16:19:28.079Z,2.80
2022-10-25T16:30:32.101Z,3.97
2022-10-25T16:36:44.431Z,3.70
2022-10-25T16:41:57.412Z,3.67
2022-10-25T16:47:27.886Z,6.13
2022-10-25T16:59:08.981Z,3.67
2022-10-25T17:39:30.663Z,6.23
2022-10-25T17:45:35.519Z,8.73
2022-10-25T17:56:28.216Z,4.70
2022-10-25T18:14:36.755Z,7.50
2022-10-25T18:19:49.932Z,3.90
2022-10-25T18:25:09.091Z,5.27
2022-10-25T18:30:15.797Z,6.43
2022-10-25T18:35:26.236Z,5.20
2022-10-25T18:40:33.894Z,3.77
2022-10-25T18:45:36.575Z,9.53
2022-10-25T18:50:42.727Z,8.90
2022-10-25T18:55:48.053Z,6.80
2022-10-25T19:00:55.418Z,4.67
2022-10-25T19:05:57.282Z,4.67
2022-10-25T19:17:03.981Z,4.97
2022-10-25T19:22:05.819Z,4.63
2022-10-25T19:27:07.871Z,5.13
2022-10-25T19:32:12.970Z,9.33
2022-10-25T19:42:33.091Z,7.27
2022-10-25T19:47:35.872Z,6.87
2022-10-25T19:52:38.300Z,6.53
2022-10-25T19:57:40.076Z,5.53
2022-10-25T20:02:41.948Z,6.17
2022-10-25T20:07:43.629Z,6.63
2022-10-25T20:12:45.545Z,8.00
2022-10-25T20:17:56.655Z,12.33
2022-10-25T20:22:58.317Z,12.53
2022-10-25T20:28:02.747Z,12.43
2022-10-25T20:33:08.592Z,12.03
2022-10-25T20:38:12.712Z,12.73
2022-10-25T20:43:14.762Z,13.60
2022-10-25T20:48:16.539Z,13.67
2022-10-25T20:53:18.909Z,12.77
2022-10-25T20:58:21.634Z,11.80
2022-10-25T21:03:25.250Z,12.90
2022-10-25T21:08:27.320Z,13.23
2022-10-25T21:13:34.342Z,13.73
2022-10-25T21:18:37.169Z,26.87
2022-10-25T21:23:38.969Z,32.93
2022-10-25T21:28:41.803Z,26.80
2022-10-25T21:33:49.985Z,14.83
2022-10-25T21:38:53.811Z,13.73
2022-10-25T21:43:56.487Z,14.03
2022-10-25T21:48:58.264Z,15.40
2022-10-25T21:54:04.165Z,13.43
2022-10-25T21:59:05.914Z,11.43
2022-10-25T22:04:07.687Z,11.90
2022-10-25T22:09:09.361Z,12.47
2022-10-25T22:14:13.608Z,14.67
2022-10-25T22:19:18.251Z,13.30
2022-10-25T22:24:20.040Z,11.77
2022-10-25T22:29:22.891Z,12.33
2022-10-25T22:34:24.608Z,10.97
2022-10-25T22:39:26.452Z,11.30
2022-10-25T22:44:33.949Z,11.47
2022-10-25T22:49:35.639Z,10.30
2022-10-25T22:54:37.734Z,9.60
2022-10-25T22:59:42.617Z,9.67
2022-10-25T23:04:44.377Z,9.60
2022-10-25T23:09:46.185Z,8.33
2022-10-25T23:33:57.555Z,8.33
2022-10-25T23:45:25.001Z,7.10
2022-10-25T23:50:26.717Z,8.13
2022-10-25T23:55:28.428Z,8.47
